createdAt,value
2019-02-06T00:01:33.735Z,2.23
2019-02-06T00:04:06.331Z,2.26
2019-02-06T00:06:40.671Z,2.29
2019-02-06T00:09:15.148Z,2.29
2019-02-06T00:11:47.962Z,2.30
2019-02-06T00:14:20.524Z,2.30
2019-02-06T00:16:52.942Z,2.30
2019-02-06T00:19:25.387Z,2.29
2019-02-06T00:21:57.820Z,2.28
2019-02-06T00:24:30.040Z,2.28
2019-02-06T00:27:02.414Z,2.30
2019-02-06T00:29:35.389Z,2.31
2019-02-06T00:32:07.739Z,2.30
2019-02-06T00:34:40.098Z,2.28
2019-02-06T00:37:12.327Z,2.28
2019-02-06T00:39:45.609Z,2.26
2019-02-06T00:42:18.412Z,2.26
2019-02-06T00:44:50.728Z,2.27
2019-02-06T00:47:23.062Z,2.27
2019-02-06T00:49:55.355Z,2.24
2019-02-06T00:52:27.641Z,2.25
2019-02-06T00:55:00.342Z,2.26
2019-02-06T00:57:32.568Z,2.27
2019-02-06T01:00:07.396Z,2.30
2019-02-06T01:02:39.805Z,2.27
2019-02-06T01:05:14.117Z,2.25
2019-02-06T01:07:48.041Z,2.25
2019-02-06T01:10:20.639Z,2.27
2019-02-06T01:12:55.020Z,2.26
2019-02-06T01:15:31.622Z,2.27
2019-02-06T01:18:05.297Z,2.24
2019-02-06T01:20:38.773Z,2.23
2019-02-06T01:23:11.144Z,2.25
2019-02-06T01:25:44.783Z,2.28
2019-02-06T01:28:22.802Z,2.28
2019-02-06T01:30:58.764Z,2.31
2019-02-06T01:33:31.022Z,2.30
2019-02-06T01:36:03.244Z,2.30
2019-02-06T01:38:43.239Z,2.30
2019-02-06T01:41:15.508Z,2.28
2019-02-06T01:43:48.198Z,2.28
2019-02-06T01:46:20.537Z,2.28
2019-02-06T01:48:52.871Z,2.30
2019-02-06T01:51:25.492Z,2.27
2019-02-06T01:53:57.808Z,2.29
2019-02-06T01:56:30.056Z,2.27
2019-02-06T01:59:02.333Z,2.26
2019-02-06T02:01:36.193Z,2.24
2019-02-06T02:04:09.788Z,2.26
2019-02-06T02:06:42.130Z,2.26
2019-02-06T02:09:19.743Z,2.24
2019-02-06T02:11:52.137Z,2.25
2019-02-06T02:14:24.662Z,2.25
2019-02-06T02:16:56.986Z,2.27
2019-02-06T02:19:29.444Z,2.27
2019-02-06T02:22:02.576Z,2.30
2019-02-06T02:24:34.967Z,2.31
2019-02-06T02:27:07.573Z,2.30
2019-02-06T02:29:40.464Z,2.34
2019-02-06T02:32:12.681Z,2.33
2019-02-06T02:34:45.025Z,2.35
2019-02-06T02:37:17.280Z,2.36
2019-02-06T02:39:49.812Z,2.34
2019-02-06T02:42:22.050Z,2.33
2019-02-06T02:44:55.139Z,2.34
2019-02-06T02:47:27.676Z,2.37
2019-02-06T02:49:59.901Z,2.33
2019-02-06T02:52:32.398Z,2.33
2019-02-06T02:55:08.492Z,2.31
2019-02-06T02:57:42.000Z,2.31
2019-02-06T03:00:17.789Z,2.32
2019-02-06T03:02:56.835Z,2.31
2019-02-06T03:05:31.938Z,2.31
2019-02-06T03:08:06.601Z,2.34
2019-02-06T03:10:45.197Z,2.35
2019-02-06T03:13:17.624Z,2.36
2019-02-06T03:15:49.934Z,2.37
2019-02-06T03:18:22.331Z,2.35
2019-02-06T03:20:56.221Z,2.36
2019-02-06T03:23:28.811Z,2.34
2019-02-06T03:26:01.186Z,2.34
2019-02-06T03:28:35.309Z,2.35
2019-02-06T03:31:07.691Z,2.34
2019-02-06T03:33:46.665Z,2.33
2019-02-06T03:36:18.946Z,2.36
2019-02-06T03:38:51.219Z,2.33
2019-02-06T03:41:26.715Z,2.34
2019-02-06T03:44:04.414Z,2.33
2019-02-06T03:46:38.203Z,2.33
2019-02-06T03:49:10.437Z,2.31
2019-02-06T03:51:42.669Z,2.30
2019-02-06T03:54:16.347Z,2.29
2019-02-06T03:56:48.946Z,2.28
2019-02-06T03:59:28.395Z,2.28
2019-02-06T04:02:00.684Z,2.27
2019-02-06T04:04:35.975Z,2.27
2019-02-06T04:07:08.165Z,2.28
2019-02-06T04:09:40.424Z,2.27
2019-02-06T04:12:12.746Z,2.27
2019-02-06T04:14:44.937Z,2.28
2019-02-06T04:17:17.300Z,2.27
2019-02-06T04:19:49.553Z,2.28
2019-02-06T04:22:21.857Z,2.27
2019-02-06T04:24:57.186Z,2.29
2019-02-06T04:27:31.324Z,2.28
2019-02-06T04:30:05.539Z,2.25
2019-02-06T04:32:37.800Z,2.29
2019-02-06T04:35:11.548Z,2.27
2019-02-06T04:37:43.919Z,2.27
2019-02-06T04:40:18.246Z,2.27
2019-02-06T04:42:51.129Z,2.28
2019-02-06T04:45:23.426Z,2.29
2019-02-06T04:47:55.730Z,2.25
2019-02-06T04:50:28.043Z,2.26
2019-02-06T04:53:00.334Z,2.26
2019-02-06T04:55:33.037Z,2.28
2019-02-06T04:58:05.440Z,2.31
2019-02-06T05:00:37.772Z,2.36
2019-02-06T05:03:10.167Z,2.38
2019-02-06T05:05:42.517Z,2.39
2019-02-06T05:08:15.072Z,2.42
2019-02-06T05:10:47.547Z,2.36
2019-02-06T05:13:19.795Z,2.35
2019-02-06T05:15:52.254Z,2.40
2019-02-06T05:18:24.526Z,2.37
2019-02-06T05:20:57.065Z,2.42
2019-02-06T05:23:29.566Z,2.43
2019-02-06T05:26:02.047Z,2.41
2019-02-06T05:28:34.348Z,2.40
2019-02-06T05:31:06.695Z,2.39
2019-02-06T05:33:39.158Z,2.39
2019-02-06T05:36:11.529Z,2.37
2019-02-06T05:38:43.960Z,2.36
2019-02-06T05:41:16.450Z,2.35
2019-02-06T05:43:48.878Z,2.34
2019-02-06T05:46:21.354Z,2.33
2019-02-06T05:48:53.592Z,2.32
2019-02-06T05:51:25.843Z,2.30
2019-02-06T05:53:58.115Z,2.28
2019-02-06T05:56:30.412Z,2.26
2019-02-06T05:59:02.716Z,2.25
2019-02-06T06:01:35.133Z,2.24
2019-02-06T06:04:07.553Z,2.22
2019-02-06T06:06:39.844Z,2.20
2019-02-06T06:09:12.277Z,2.20
2019-02-06T06:11:44.662Z,2.20
2019-02-06T06:14:18.135Z,2.20
2019-02-06T06:16:50.395Z,2.20
2019-02-06T06:19:23.484Z,2.21
2019-02-06T06:21:55.894Z,2.19
2019-02-06T06:24:28.126Z,2.18
2019-02-06T06:27:00.715Z,2.21
2019-02-06T06:29:32.916Z,2.32
2019-02-06T06:32:05.224Z,2.41
2019-02-06T06:34:37.495Z,2.45
2019-02-06T06:37:09.776Z,2.45
2019-02-06T06:39:42.090Z,2.46
2019-02-06T06:42:14.353Z,2.49
2019-02-06T06:44:46.576Z,2.55
2019-02-06T06:47:18.862Z,2.59
2019-02-06T06:49:51.169Z,2.63
2019-02-06T06:52:23.397Z,2.62
2019-02-06T06:54:55.643Z,2.65
2019-02-06T06:57:27.892Z,2.65
2019-02-06T07:00:00.484Z,2.72
2019-02-06T07:02:32.751Z,2.73
2019-02-06T07:05:05.840Z,2.75
2019-02-06T07:07:38.150Z,2.73
2019-02-06T07:10:12.311Z,2.72
2019-02-06T07:12:45.949Z,2.75
2019-02-06T07:15:20.933Z,2.81
2019-02-06T07:17:53.213Z,2.83
2019-02-06T07:20:25.413Z,2.76
2019-02-06T07:22:57.675Z,2.79
2019-02-06T07:25:29.922Z,2.77
2019-02-06T07:28:02.185Z,2.77
2019-02-06T07:30:35.947Z,2.80
2019-02-06T07:33:08.189Z,2.80
2019-02-06T07:35:40.463Z,2.80
2019-02-06T07:38:23.847Z,2.82
2019-02-06T07:40:47.721Z,2.84
2019-02-06T07:43:20.029Z,2.87
2019-02-06T07:45:52.233Z,2.89
2019-02-06T07:48:24.814Z,2.95
2019-02-06T07:50:57.126Z,2.98
2019-02-06T07:53:29.370Z,2.94
2019-02-06T07:56:01.677Z,2.96
2019-02-06T07:58:33.930Z,2.97
2019-02-06T08:01:06.429Z,2.99
2019-02-06T08:03:38.732Z,3.02
2019-02-06T08:06:10.974Z,3.02
2019-02-06T08:08:43.258Z,3.10
2019-02-06T08:11:15.534Z,3.13
2019-02-06T08:13:47.942Z,3.14
2019-02-06T08:16:20.172Z,3.13
2019-02-06T08:18:53.535Z,3.18
2019-02-06T08:21:25.963Z,3.20
2019-02-06T08:23:58.228Z,3.23
2019-02-06T08:26:31.292Z,3.27
2019-02-06T08:29:03.790Z,3.32
2019-02-06T08:31:36.011Z,3.41
2019-02-06T08:34:08.312Z,3.48
2019-02-06T08:36:40.715Z,3.57
2019-02-06T08:39:12.941Z,3.64
2019-02-06T08:41:45.265Z,3.68
2019-02-06T08:44:17.515Z,3.66
2019-02-06T08:46:49.732Z,3.75
2019-02-06T08:49:22.398Z,3.83
2019-02-06T08:51:54.892Z,3.94
2019-02-06T08:54:27.226Z,4.00
2019-02-06T08:56:59.759Z,4.03
2019-02-06T08:59:32.019Z,4.05
2019-02-06T09:02:04.918Z,4.13
2019-02-06T09:04:37.232Z,4.22
2019-02-06T09:07:14.952Z,4.31
2019-02-06T09:09:47.176Z,4.39
2019-02-06T09:12:19.439Z,4.53
2019-02-06T09:14:51.658Z,4.68
2019-02-06T09:17:24.359Z,4.84
2019-02-06T09:19:56.667Z,5.04
2019-02-06T09:22:29.286Z,5.35
2019-02-06T09:25:01.963Z,5.76
2019-02-06T09:27:34.223Z,5.95
2019-02-06T09:30:07.239Z,6.24
2019-02-06T09:32:39.514Z,6.38
2019-02-06T09:35:12.155Z,7.22
2019-02-06T09:37:44.804Z,7.12
2019-02-06T09:40:20.827Z,6.96
2019-02-06T09:42:53.163Z,7.37
2019-02-06T09:45:25.719Z,7.55
2019-02-06T09:47:58.134Z,8.22
2019-02-06T09:50:32.973Z,7.96
2019-02-06T09:53:05.722Z,7.54
2019-02-06T09:55:38.381Z,7.74
2019-02-06T09:58:10.685Z,8.18
2019-02-06T10:00:43.019Z,8.23
2019-02-06T10:03:16.295Z,8.67
2019-02-06T10:05:48.695Z,9.27
2019-02-06T10:08:20.968Z,9.59
2019-02-06T10:10:53.257Z,9.81
2019-02-06T10:13:25.733Z,9.91
2019-02-06T10:15:58.103Z,10.39
2019-02-06T10:18:30.318Z,10.48
2019-02-06T10:21:02.816Z,10.54
2019-02-06T10:23:35.071Z,10.63
2019-02-06T10:26:07.758Z,10.19
2019-02-06T10:28:40.021Z,10.08
2019-02-06T10:31:12.362Z,10.70
2019-02-06T10:33:45.640Z,11.23
2019-02-06T10:36:17.968Z,11.35
2019-02-06T10:38:50.475Z,11.52
2019-02-06T10:41:22.698Z,11.78
2019-02-06T10:43:55.118Z,11.89
2019-02-06T10:46:27.436Z,11.93
2019-02-06T10:48:59.853Z,12.11
2019-02-06T10:51:32.080Z,12.06
2019-02-06T10:54:04.517Z,12.18
2019-02-06T10:56:36.816Z,12.16
2019-02-06T10:59:09.179Z,12.00
2019-02-06T11:01:41.434Z,11.89
2019-02-06T11:04:13.836Z,10.98
2019-02-06T11:06:46.069Z,10.99
2019-02-06T11:09:18.502Z,11.04
2019-02-06T11:11:50.751Z,10.58
2019-02-06T11:14:23.052Z,10.56
2019-02-06T11:16:55.433Z,10.61
2019-02-06T11:19:27.682Z,10.91
2019-02-06T11:21:59.895Z,10.89
2019-02-06T11:24:32.180Z,11.16
2019-02-06T11:27:04.928Z,10.94
2019-02-06T11:29:37.178Z,10.83
2019-02-06T11:32:09.514Z,10.93
2019-02-06T11:34:44.170Z,11.02
2019-02-06T11:37:16.419Z,10.87
2019-02-06T11:39:57.682Z,10.55
2019-02-06T11:42:26.124Z,10.52
2019-02-06T11:45:01.986Z,10.68
2019-02-06T11:47:36.197Z,10.71
2019-02-06T11:59:56.195Z,16.64
2019-02-06T12:02:36.936Z,14.53
2019-02-06T12:05:02.833Z,13.03
2019-02-06T12:07:35.460Z,12.05
2019-02-06T12:10:10.912Z,11.47
2019-02-06T12:12:43.208Z,10.92
2019-02-06T12:15:17.573Z,10.74
2019-02-06T12:17:50.383Z,10.49
2019-02-06T12:20:22.982Z,10.42
2019-02-06T12:22:55.400Z,10.34
2019-02-06T12:25:27.730Z,10.19
2019-02-06T12:28:00.029Z,10.35
2019-02-06T12:30:33.684Z,10.10
2019-02-06T12:33:06.997Z,9.79
2019-02-06T12:35:39.388Z,9.73
2019-02-06T12:38:11.664Z,9.66
2019-02-06T12:40:45.010Z,9.60
2019-02-06T12:43:18.060Z,9.76
2019-02-06T12:45:50.409Z,9.80
2019-02-06T12:48:23.908Z,9.56
2019-02-06T12:50:56.174Z,9.55
2019-02-06T12:53:28.490Z,9.52
2019-02-06T12:56:01.778Z,9.48
2019-02-06T12:58:34.054Z,9.37
2019-02-06T13:01:06.736Z,9.24
2019-02-06T13:03:38.985Z,9.32
2019-02-06T13:06:11.222Z,9.37
2019-02-06T13:08:43.895Z,9.20
2019-02-06T13:11:16.207Z,8.81
2019-02-06T13:13:48.626Z,8.66
2019-02-06T13:16:23.328Z,8.55
2019-02-06T13:18:55.828Z,8.62
2019-02-06T13:21:28.252Z,8.36
2019-02-06T13:24:00.486Z,8.53
2019-02-06T13:26:32.887Z,8.59
2019-02-06T13:29:05.381Z,8.31
2019-02-06T13:31:38.029Z,8.20
2019-02-06T13:34:10.662Z,8.14
2019-02-06T13:36:42.966Z,7.86
2019-02-06T13:39:15.320Z,7.56
2019-02-06T13:41:48.064Z,7.54
2019-02-06T13:44:20.896Z,7.52
2019-02-06T13:46:53.726Z,7.44
2019-02-06T13:49:26.086Z,7.42
2019-02-06T13:51:58.294Z,7.38
2019-02-06T13:54:32.365Z,7.20
2019-02-06T13:57:05.022Z,7.04
2019-02-06T13:59:38.569Z,6.83
2019-02-06T14:02:10.867Z,6.92
2019-02-06T14:04:43.113Z,7.08
2019-02-06T14:07:15.711Z,7.32
2019-02-06T14:09:48.029Z,7.61
2019-02-06T14:12:20.267Z,7.57
2019-02-06T14:15:00.908Z,7.55
2019-02-06T14:17:33.930Z,7.24
2019-02-06T14:20:09.521Z,6.82
2019-02-06T14:22:42.109Z,6.43
2019-02-06T14:25:22.395Z,6.23
2019-02-06T14:28:30.173Z,6.08
2019-02-06T14:31:55.623Z,6.26
2019-02-06T14:35:03.328Z,6.21
2019-02-06T14:38:28.327Z,6.01
2019-02-06T14:41:16.329Z,5.92
2019-02-06T14:44:24.030Z,5.89
2019-02-06T14:47:25.059Z,5.81
2019-02-06T14:50:20.028Z,5.71
2019-02-06T14:53:42.163Z,5.58
2019-02-06T14:56:55.515Z,5.44
2019-02-06T15:00:26.880Z,5.23
2019-02-06T15:03:23.949Z,5.08
2019-02-06T15:06:53.121Z,4.93
2019-02-06T15:10:00.848Z,4.77
2019-02-06T15:13:17.334Z,4.69
2019-02-06T15:16:17.579Z,4.63
2019-02-06T15:19:49.267Z,4.60
2019-02-06T15:23:32.571Z,4.55
2019-02-06T15:26:50.398Z,4.41
2019-02-06T15:29:40.556Z,4.31
2019-02-06T15:32:42.078Z,4.22
2019-02-06T15:35:37.742Z,4.20
2019-02-06T15:38:39.934Z,4.10
2019-02-06T15:41:48.854Z,3.98
2019-02-06T15:44:27.921Z,3.93
2019-02-06T15:47:49.451Z,3.88
2019-02-06T15:51:21.311Z,3.83
2019-02-06T15:54:38.581Z,3.73
2019-02-06T15:57:45.511Z,3.63
2019-02-06T16:00:59.589Z,3.60
2019-02-06T16:04:22.662Z,3.46
2019-02-06T16:07:28.505Z,3.37
2019-02-06T16:10:36.745Z,3.33
2019-02-06T16:13:24.345Z,3.24
2019-02-06T16:16:24.011Z,3.21
2019-02-06T16:19:50.533Z,3.18
2019-02-06T16:22:45.605Z,3.16
2019-02-06T16:25:38.782Z,3.13
2019-02-06T16:28:41.440Z,3.06
2019-02-06T16:31:33.994Z,3.00
2019-02-06T16:34:26.226Z,3.02
2019-02-06T16:37:39.754Z,2.93
2019-02-06T16:40:59.110Z,2.83
2019-02-06T16:44:10.761Z,2.83
2019-02-06T16:47:19.166Z,2.83
2019-02-06T16:50:11.777Z,2.82
2019-02-06T16:53:27.582Z,2.79
2019-02-06T16:56:31.302Z,2.77
2019-02-06T16:59:47.738Z,2.66
2019-02-06T17:03:12.132Z,2.64
2019-02-06T17:05:51.117Z,2.58
2019-02-06T17:09:02.229Z,2.60
2019-02-06T17:12:04.085Z,2.59
2019-02-06T17:15:14.211Z,2.60
2019-02-06T17:18:35.224Z,2.57
2019-02-06T17:21:51.917Z,2.61
2019-02-06T17:25:17.415Z,2.52
2019-02-06T17:28:21.641Z,2.47
2019-02-06T17:31:21.486Z,2.27
2019-02-06T17:34:40.268Z,2.29
2019-02-06T17:38:07.886Z,2.32
2019-02-06T17:41:20.952Z,2.28
2019-02-06T17:44:36.811Z,2.25
2019-02-06T17:47:44.763Z,2.11
2019-02-06T17:51:12.157Z,2.08
2019-02-06T17:54:26.204Z,2.06
2019-02-06T17:57:06.987Z,2.09
2019-02-06T18:00:16.831Z,1.99
2019-02-06T18:03:41.856Z,2.05
2019-02-06T18:07:27.797Z,2.05
2019-02-06T18:10:07.138Z,1.99
2019-02-06T18:12:39.520Z,1.91
2019-02-06T18:15:15.727Z,1.83
2019-02-06T18:21:02.714Z,1.71
2019-02-06T18:26:49.750Z,1.71
2019-02-06T18:27:14.046Z,1.73
2019-02-06T18:29:23.645Z,1.73
2019-02-06T18:32:46.294Z,1.73
2019-02-06T18:35:24.107Z,1.76
2019-02-06T18:37:57.221Z,1.69
2019-02-06T18:40:35.188Z,1.70
2019-02-06T18:43:07.792Z,1.70
2019-02-06T18:45:40.539Z,1.66
2019-02-06T18:48:17.032Z,1.67
2019-02-06T18:50:51.282Z,1.64
2019-02-06T18:53:25.910Z,1.61
2019-02-06T18:55:58.538Z,1.57
2019-02-06T18:58:32.631Z,1.56
2019-02-06T19:01:06.123Z,1.53
2019-02-06T19:03:43.951Z,1.49
2019-02-06T19:06:24.759Z,1.48
2019-02-06T19:09:16.498Z,1.42
2019-02-06T19:11:57.929Z,1.41
2019-02-06T19:14:39.022Z,1.41
2019-02-06T19:17:14.948Z,1.44
2019-02-06T19:19:54.450Z,1.41
2019-02-06T19:22:34.445Z,1.40
2019-02-06T19:25:07.218Z,1.39
2019-02-06T19:27:39.615Z,1.41
2019-02-06T19:30:20.365Z,1.28
2019-02-06T19:32:52.803Z,1.31
2019-02-06T19:35:25.134Z,1.33
2019-02-06T19:38:07.727Z,1.35
2019-02-06T19:40:34.762Z,1.32
2019-02-06T19:43:09.694Z,1.31
2019-02-06T19:45:43.742Z,1.31
2019-02-06T19:48:21.668Z,1.17
2019-02-06T19:50:54.658Z,1.19
2019-02-06T19:53:27.010Z,1.11
2019-02-06T19:55:59.372Z,1.11
2019-02-06T19:58:33.434Z,1.14
2019-02-06T20:01:07.485Z,1.18
2019-02-06T20:03:39.790Z,1.16
2019-02-06T20:06:31.112Z,1.17
2019-02-06T20:09:08.458Z,1.19
2019-02-06T20:11:42.018Z,1.21
2019-02-06T20:14:17.906Z,1.18
2019-02-06T20:17:00.154Z,1.20
2019-02-06T20:23:34.726Z,1.25
2019-02-06T20:26:13.537Z,1.24
2019-02-06T20:28:58.794Z,1.22
2019-02-06T20:31:33.521Z,1.23
2019-02-06T20:34:10.878Z,1.26
2019-02-06T20:36:44.687Z,1.22
2019-02-06T20:39:18.488Z,1.25
2019-02-06T20:41:50.859Z,1.29
2019-02-06T20:44:23.272Z,1.26
2019-02-06T20:46:55.973Z,1.24
2019-02-06T20:49:29.887Z,1.22
2019-02-06T20:52:02.270Z,1.25
2019-02-06T20:54:34.562Z,1.27
2019-02-06T20:57:13.510Z,1.21
2019-02-06T20:59:41.108Z,1.23
2019-02-06T21:02:13.705Z,1.14
2019-02-06T21:04:47.119Z,1.13
2019-02-06T21:07:20.474Z,1.15
2019-02-06T21:09:52.733Z,1.13
2019-02-06T21:12:24.958Z,1.14
2019-02-06T21:14:57.586Z,1.16
2019-02-06T21:17:29.966Z,1.23
2019-02-06T21:20:02.227Z,1.24
2019-02-06T21:22:34.826Z,1.15
2019-02-06T21:25:09.611Z,1.09
2019-02-06T21:27:42.757Z,1.07
2019-02-06T21:30:20.349Z,1.03
2019-02-06T21:32:53.430Z,1.00
2019-02-06T21:35:25.668Z,0.98
2019-02-06T21:37:57.895Z,1.01
2019-02-06T21:40:31.947Z,1.05
2019-02-06T21:43:04.830Z,1.10
2019-02-06T21:45:37.375Z,1.07
2019-02-06T21:48:09.639Z,1.06
2019-02-06T21:50:42.253Z,1.07
2019-02-06T21:53:14.515Z,1.09
2019-02-06T21:55:47.593Z,1.03
2019-02-06T21:58:19.964Z,0.97
2019-02-06T22:00:52.418Z,0.98
2019-02-06T22:03:29.452Z,0.92
2019-02-06T22:06:06.670Z,0.87
2019-02-06T22:08:40.925Z,0.89
2019-02-06T22:11:15.071Z,0.91
2019-02-06T22:13:54.975Z,0.92
2019-02-06T22:16:21.543Z,0.89
2019-02-06T22:18:53.812Z,0.93
2019-02-06T22:21:29.198Z,0.89
2019-02-06T22:24:01.628Z,0.89
2019-02-06T22:26:37.090Z,0.87
2019-02-06T22:29:09.538Z,0.84
2019-02-06T22:31:42.459Z,0.83
2019-02-06T22:34:15.069Z,0.82
2019-02-06T22:36:47.434Z,0.79
2019-02-06T22:39:19.680Z,0.78
2019-02-06T22:41:52.034Z,0.77
2019-02-06T22:44:24.867Z,0.83
2019-02-06T22:46:57.788Z,0.85
2019-02-06T22:49:30.200Z,0.86
2019-02-06T22:52:02.619Z,0.90
2019-02-06T22:54:35.042Z,0.91
2019-02-06T22:57:07.360Z,0.94
2019-02-06T22:59:39.742Z,0.94
2019-02-06T23:02:12.274Z,0.88
2019-02-06T23:04:44.668Z,0.85
2019-02-06T23:07:17.022Z,0.86
2019-02-06T23:09:49.288Z,0.87
2019-02-06T23:12:21.673Z,0.81
2019-02-06T23:14:54.268Z,0.82
2019-02-06T23:17:26.611Z,0.80
2019-02-06T23:19:58.880Z,0.74
2019-02-06T23:22:31.375Z,0.75
2019-02-06T23:25:04.476Z,0.74
2019-02-06T23:27:40.041Z,0.72
2019-02-06T23:30:12.607Z,0.68
2019-02-06T23:32:45.070Z,0.66
2019-02-06T23:35:17.387Z,0.64
2019-02-06T23:37:49.738Z,0.62
2019-02-06T23:40:22.182Z,0.59
2019-02-06T23:42:54.556Z,0.61
2019-02-06T23:45:27.097Z,0.62
2019-02-06T23:48:00.471Z,0.63
2019-02-06T23:50:32.970Z,0.65
2019-02-06T23:53:06.490Z,0.66
2019-02-06T23:55:38.706Z,0.69
2019-02-06T23:58:11.004Z,0.67
